Terminal Aerodrome Forecast
Issued by NWS

Home | Current Version | Previous Version | Text Only | Print | Product List | Glossary On
Versions: 1 2 3 4 5 6 7 8 9 10 11 12 13 14
000
FTUS45 KRIW 271700
TAFLND
TAF
KLND 271736Z 2718/2818 VRB04KT P6SM BKN010
     FM271900 VRB04KT P6SM FEW012 BKN080
     FM280700 34005KT P6SM VCSH BKN040
     FM281000 VRB04KT 5SM -SN BKN025=

USA.gov is the U.S. government's official web portal to all federal, state and local government web resources and services.